sensor_id;sensor_type;location;lat;lon;timestamp;pressure;altitude;pressure_sealevel;temperature;humidity
62126;BME280;48112;53.282;6.150;2022-12-07T00:00:12;101789.88;;;16.49;61.20
62126;BME280;48112;53.282;6.150;2022-12-07T00:01:17;101791.78;;;16.48;60.98
62126;BME280;48112;53.282;6.150;2022-12-07T00:02:20;101790.22;;;16.47;61.00
62126;BME280;48112;53.282;6.150;2022-12-07T00:03:22;101793.72;;;16.48;61.05
62126;BME280;48112;53.282;6.150;2022-12-07T00:04:25;101791.00;;;16.48;61.05
62126;BME280;48112;53.282;6.150;2022-12-07T00:05:29;101792.59;;;16.49;61.10
62126;BME280;48112;53.282;6.150;2022-12-07T00:06:33;101789.88;;;16.49;61.03
62126;BME280;48112;53.282;6.150;2022-12-07T00:07:36;101789.44;;;16.47;60.94
62126;BME280;48112;53.282;6.150;2022-12-07T00:08:38;101780.09;;;16.48;60.82
62126;BME280;48112;53.282;6.150;2022-12-07T00:09:41;101782.81;;;16.48;60.77
62126;BME280;48112;53.282;6.150;2022-12-07T00:10:43;101778.16;;;16.48;60.85
62126;BME280;48112;53.282;6.150;2022-12-07T00:11:49;101778.97;;;16.49;60.86
62126;BME280;48112;53.282;6.150;2022-12-07T00:12:51;101773.88;;;16.47;60.99
62126;BME280;48112;53.282;6.150;2022-12-07T00:13:55;101783.63;;;16.48;60.77
62126;BME280;48112;53.282;6.150;2022-12-07T00:14:57;101773.88;;;16.47;60.99
62126;BME280;48112;53.282;6.150;2022-12-07T00:16:01;101775.78;;;16.47;60.84
62126;BME280;48112;53.282;6.150;2022-12-07T00:17:03;101770.34;;;16.47;60.79
62126;BME280;48112;53.282;6.150;2022-12-07T00:18:06;101777.38;;;16.48;60.78
62126;BME280;48112;53.282;6.150;2022-12-07T00:19:10;101778.97;;;16.49;60.67
62126;BME280;48112;53.282;6.150;2022-12-07T00:20:13;101777.38;;;16.48;60.75
62126;BME280;48112;53.282;6.150;2022-12-07T00:21:16;101772.72;;;16.48;60.75
62126;BME280;48112;53.282;6.150;2022-12-07T00:22:21;101772.72;;;16.48;60.72
62126;BME280;48112;53.282;6.150;2022-12-07T00:23:23;101769.19;;;16.48;60.89
62126;BME280;48112;53.282;6.150;2022-12-07T00:24:25;101773.06;;;16.47;60.89
62126;BME280;48112;53.282;6.150;2022-12-07T00:25:29;101765.69;;;16.47;60.79
62126;BME280;48112;53.282;6.150;2022-12-07T00:26:33;101769.19;;;16.48;60.86
62126;BME280;48112;53.282;6.150;2022-12-07T00:27:36;101764.09;;;16.46;60.78
62126;BME280;48112;53.282;6.150;2022-12-07T00:28:39;101769.19;;;16.48;60.58
62126;BME280;48112;53.282;6.150;2022-12-07T00:29:42;101767.63;;;16.47;60.77
62126;BME280;48112;53.282;6.150;2022-12-07T00:30:44;101757.50;;;16.47;60.66
62126;BME280;48112;53.282;6.150;2022-12-07T00:31:47;101762.16;;;16.47;60.67
62126;BME280;48112;53.282;6.150;2022-12-07T00:32:49;101762.97;;;16.47;60.76
62126;BME280;48112;53.282;6.150;2022-12-07T00:33:51;101767.63;;;16.47;60.66
62126;BME280;48112;53.282;6.150;2022-12-07T00:34:54;101764.88;;;16.47;60.57
62126;BME280;48112;53.282;6.150;2022-12-07T00:35:57;101762.97;;;16.47;60.62
62126;BME280;48112;53.282;6.150;2022-12-07T00:36:59;101761.38;;;16.46;60.70
62126;BME280;48112;53.282;6.150;2022-12-07T00:38:03;101766.47;;;16.48;60.72
62126;BME280;48112;53.282;6.150;2022-12-07T00:39:05;101762.97;;;16.47;60.53
62126;BME280;48112;53.282;6.150;2022-12-07T00:40:09;101757.50;;;16.47;60.62
62126;BME280;48112;53.282;6.150;2022-12-07T00:41:13;101760.22;;;16.47;60.53
62126;BME280;48112;53.282;6.150;2022-12-07T00:42:16;101762.53;;;16.45;60.49
62126;BME280;48112;53.282;6.150;2022-12-07T00:43:18;101761.38;;;16.46;60.55
62126;BME280;48112;53.282;6.150;2022-12-07T00:44:20;101764.88;;;16.47;60.53
62126;BME280;48112;53.282;6.150;2022-12-07T00:45:23;101758.63;;;16.46;60.43
62126;BME280;48112;53.282;6.150;2022-12-07T00:46:26;101762.16;;;16.47;60.26
62126;BME280;48112;53.282;6.150;2022-12-07T00:47:29;101764.88;;;16.47;60.38
62126;BME280;48112;53.282;6.150;2022-12-07T00:48:31;101760.59;;;16.46;60.55
62126;BME280;48112;53.282;6.150;2022-12-07T00:49:33;101767.63;;;16.47;60.54
62126;BME280;48112;53.282;6.150;2022-12-07T00:50:36;101764.88;;;16.47;60.44
62126;BME280;48112;53.282;6.150;2022-12-07T00:51:38;101767.63;;;16.47;60.62
62126;BME280;48112;53.282;6.150;2022-12-07T00:52:41;101772.28;;;16.46;60.59
62126;BME280;48112;53.282;6.150;2022-12-07T00:53:44;101771.13;;;16.47;60.20
62126;BME280;48112;53.282;6.150;2022-12-07T00:54:47;101776.16;;;16.45;60.63
62126;BME280;48112;53.282;6.150;2022-12-07T00:55:49;101770.69;;;16.45;60.39
62126;BME280;48112;53.282;6.150;2022-12-07T00:56:51;101776.94;;;16.46;60.42
62126;BME280;48112;53.282;6.150;2022-12-07T00:57:53;101771.50;;;16.46;60.26
62126;BME280;48112;53.282;6.150;2022-12-07T00:58:57;101770.34;;;16.47;60.35
62126;BME280;48112;53.282;6.150;2022-12-07T01:00:00;101766.06;;;16.46;60.28
62126;BME280;48112;53.282;6.150;2022-12-07T01:01:04;101762.16;;;16.47;60.43
62126;BME280;48112;53.282;6.150;2022-12-07T01:02:07;101758.63;;;16.46;60.39
62126;BME280;48112;53.282;6.150;2022-12-07T01:03:11;101751.25;;;16.47;60.12
62126;BME280;48112;53.282;6.150;2022-12-07T01:04:14;101748.09;;;16.44;60.40
62126;BME280;48112;53.282;6.150;2022-12-07T01:05:16;101748.41;;;16.43;60.48
62126;BME280;48112;53.282;6.150;2022-12-07T01:06:19;101739.47;;;16.42;60.30
62126;BME280;48112;53.282;6.150;2022-12-07T01:07:22;101742.63;;;16.44;60.35
62126;BME280;48112;53.282;6.150;2022-12-07T01:08:25;101746.97;;;16.46;60.43
62126;BME280;48112;53.282;6.150;2022-12-07T01:09:30;101738.31;;;16.43;60.17
62126;BME280;48112;53.282;6.150;2022-12-07T01:10:32;101737.19;;;16.44;60.35
62126;BME280;48112;53.282;6.150;2022-12-07T01:11:35;101737.19;;;16.44;60.63
62126;BME280;48112;53.282;6.150;2022-12-07T01:12:37;101743.44;;;16.45;60.32
62126;BME280;48112;53.282;6.150;2022-12-07T01:13:40;101745.38;;;16.44;60.18
62126;BME280;48112;53.282;6.150;2022-12-07T01:14:42;101741.50;;;16.46;60.26
62126;BME280;48112;53.282;6.150;2022-12-07T01:15:45;101734.47;;;16.44;60.36
62126;BME280;48112;53.282;6.150;2022-12-07T01:16:46;101737.19;;;16.44;60.20
62126;BME280;48112;53.282;6.150;2022-12-07T01:17:50;101739.13;;;16.44;60.18
62126;BME280;48112;53.282;6.150;2022-12-07T01:18:53;101736.06;;;16.46;60.22
62126;BME280;48112;53.282;6.150;2022-12-07T01:19:57;101731.75;;;16.44;60.18
62126;BME280;48112;53.282;6.150;2022-12-07T01:21:00;101731.75;;;16.44;60.27
62126;BME280;48112;53.282;6.150;2022-12-07T01:22:03;101739.91;;;16.44;60.16
62126;BME280;48112;53.282;6.150;2022-12-07T01:23:06;101735.59;;;16.43;59.98
62126;BME280;48112;53.282;6.150;2022-12-07T01:24:10;101738.78;;;16.46;60.04
62126;BME280;48112;53.282;6.150;2022-12-07T01:25:14;101736.75;;;16.42;60.31
62126;BME280;48112;53.282;6.150;2022-12-07T01:26:18;101743.44;;;16.45;59.87
62126;BME280;48112;53.282;6.150;2022-12-07T01:27:21;101741.03;;;16.43;60.18
62126;BME280;48112;53.282;6.150;2022-12-07T01:28:23;101739.13;;;16.44;60.18
62126;BME280;48112;53.282;6.150;2022-12-07T01:29:26;101732.88;;;16.43;60.25
62126;BME280;48112;53.282;6.150;2022-12-07T01:30:28;101735.59;;;16.43;59.79
62126;BME280;48112;53.282;6.150;2022-12-07T01:31:31;101734.47;;;16.44;59.99
62126;BME280;48112;53.282;6.150;2022-12-07T01:32:33;101731.75;;;16.44;60.01
62126;BME280;48112;53.282;6.150;2022-12-07T01:33:37;101736.38;;;16.44;59.99
62126;BME280;48112;53.282;6.150;2022-12-07T01:34:39;101738.31;;;16.43;60.01
62126;BME280;48112;53.282;6.150;2022-12-07T01:35:42;101737.88;;;16.41;60.08
62126;BME280;48112;53.282;6.150;2022-12-07T01:36:44;101738.31;;;16.43;59.84
62126;BME280;48112;53.282;6.150;2022-12-07T01:37:46;101746.50;;;16.43;59.95
62126;BME280;48112;53.282;6.150;2022-12-07T01:38:50;101737.88;;;16.41;60.01
62126;BME280;48112;53.282;6.150;2022-12-07T01:39:54;101739.47;;;16.42;60.04
62126;BME280;48112;53.282;6.150;2022-12-07T01:40:59;101743.78;;;16.43;60.17
62126;BME280;48112;53.282;6.150;2022-12-07T01:42:02;101744.94;;;16.42;60.10
62126;BME280;48112;53.282;6.150;2022-12-07T01:43:04;101739.47;;;16.42;59.77
62126;BME280;48112;53.282;6.150;2022-12-07T01:44:20;101743.31;;;16.41;59.78
62126;BME280;48112;53.282;6.150;2022-12-07T01:45:44;101745.47;;;16.32;60.07
62126;BME280;48112;53.282;6.150;2022-12-07T01:46:48;101749.50;;;16.38;60.12
62126;BME280;48112;53.282;6.150;2022-12-07T01:47:53;101751.06;;;16.39;60.02
62126;BME280;48112;53.282;6.150;2022-12-07T01:48:57;101742.13;;;16.39;59.85
62126;BME280;48112;53.282;6.150;2022-12-07T01:50:00;101753.47;;;16.41;60.00
62126;BME280;48112;53.282;6.150;2022-12-07T01:51:05;101754.22;;;16.41;59.68
62126;BME280;48112;53.282;6.150;2022-12-07T01:52:15;101752.66;;;16.40;59.98
62126;BME280;48112;53.282;6.150;2022-12-07T01:53:18;101759.25;;;16.39;59.91
62126;BME280;48112;53.282;6.150;2022-12-07T01:54:22;101751.06;;;16.39;59.74
62126;BME280;48112;53.282;6.150;2022-12-07T01:55:24;101744.50;;;16.40;59.73
62126;BME280;48112;53.282;6.150;2022-12-07T01:56:29;101754.22;;;16.41;59.91
62126;BME280;48112;53.282;6.150;2022-12-07T01:57:35;101751.06;;;16.39;59.77
62126;BME280;48112;53.282;6.150;2022-12-07T01:58:38;101754.94;;;16.38;59.84
62126;BME280;48112;53.282;6.150;2022-12-07T01:59:42;101742.88;;;16.39;59.68
62126;BME280;48112;53.282;6.150;2022-12-07T02:00:46;101752.22;;;16.38;59.82
62126;BME280;48112;53.282;6.150;2022-12-07T02:03:45;101752.09;;;16.31;59.97
62126;BME280;48112;53.282;6.150;2022-12-07T02:05:21;101745.84;;;16.31;59.94
62126;BME280;48112;53.282;6.150;2022-12-07T02:06:25;101749.78;;;16.33;59.77
62126;BME280;48112;53.282;6.150;2022-12-07T02:07:27;101754.09;;;16.34;59.32
62126;BME280;48112;53.282;6.150;2022-12-07T02:08:32;101747.84;;;16.34;59.60
62126;BME280;48112;53.282;6.150;2022-12-07T02:09:34;101755.66;;;16.35;59.39
62126;BME280;48112;53.282;6.150;2022-12-07T02:10:37;101752.13;;;16.35;59.68
62126;BME280;48112;53.282;6.150;2022-12-07T02:11:40;101752.59;;;16.37;59.60
62126;BME280;48112;53.282;6.150;2022-12-07T02:12:44;101761.13;;;16.35;59.53
62126;BME280;48112;53.282;6.150;2022-12-07T02:13:47;101761.91;;;16.36;59.72
62126;BME280;48112;53.282;6.150;2022-12-07T02:14:51;101762.69;;;16.36;59.48
62126;BME280;48112;53.282;6.150;2022-12-07T02:16:25;101761.66;;;16.25;59.90
62126;BME280;48112;53.282;6.150;2022-12-07T02:17:36;101770.38;;;16.31;59.88
62126;BME280;48112;53.282;6.150;2022-12-07T02:18:59;101762.56;;;16.29;59.71
62126;BME280;48112;53.282;6.150;2022-12-07T02:20:21;101764.84;;;16.27;59.74
62126;BME280;48112;53.282;6.150;2022-12-07T02:21:32;101766.84;;;16.30;59.78
62126;BME280;48112;53.282;6.150;2022-12-07T02:22:54;101761.25;;;16.23;59.74
62126;BME280;48112;53.282;6.150;2022-12-07T02:24:37;101762.72;;;16.21;59.90
62126;BME280;48112;53.282;6.150;2022-12-07T02:25:58;101756.94;;;16.22;59.76
62126;BME280;48112;53.282;6.150;2022-12-07T02:29:00;101747.53;;;16.20;59.75
62126;BME280;48112;53.282;6.150;2022-12-07T02:30:11;101753.06;;;16.23;59.84
62126;BME280;48112;53.282;6.150;2022-12-07T02:31:19;101741.47;;;16.26;59.68
62126;BME280;48112;53.282;6.150;2022-12-07T02:32:26;101744.97;;;16.27;59.63
62126;BME280;48112;53.282;6.150;2022-12-07T02:33:35;101736.00;;;16.26;59.39
62126;BME280;48112;53.282;6.150;2022-12-07T02:34:44;101745.75;;;16.27;59.65
62126;BME280;48112;53.282;6.150;2022-12-07T02:35:54;101743.03;;;16.27;59.71
62126;BME280;48112;53.282;6.150;2022-12-07T02:37:02;101736.00;;;16.26;59.79
62126;BME280;48112;53.282;6.150;2022-12-07T02:38:10;101738.38;;;16.28;59.49
62126;BME280;48112;53.282;6.150;2022-12-07T02:39:20;101739.50;;;16.27;59.69
62126;BME280;48112;53.282;6.150;2022-12-07T02:40:28;101743.84;;;16.28;59.71
62126;BME280;48112;53.282;6.150;2022-12-07T02:41:35;101744.59;;;16.28;59.64
62126;BME280;48112;53.282;6.150;2022-12-07T02:42:41;101739.16;;;16.28;59.45
62126;BME280;48112;53.282;6.150;2022-12-07T02:43:47;101736.44;;;16.28;59.54
62126;BME280;48112;53.282;6.150;2022-12-07T02:44:53;101751.66;;;16.29;59.44
62126;BME280;48112;53.282;6.150;2022-12-07T02:45:59;101745.03;;;16.30;59.33
62126;BME280;48112;53.282;6.150;2022-12-07T02:47:06;101746.19;;;16.29;59.51
62126;BME280;48112;53.282;6.150;2022-12-07T02:48:12;101746.19;;;16.29;59.49
62126;BME280;48112;53.282;6.150;2022-12-07T02:49:16;101748.91;;;16.29;59.38
62126;BME280;48112;53.282;6.150;2022-12-07T02:50:19;101749.38;;;16.31;59.38
62126;BME280;48112;53.282;6.150;2022-12-07T02:51:23;101753.22;;;16.30;59.50
62126;BME280;48112;53.282;6.150;2022-12-07T02:52:24;101750.50;;;16.30;59.27
62126;BME280;48112;53.282;6.150;2022-12-07T02:53:32;101750.50;;;16.30;59.39
62126;BME280;48112;53.282;6.150;2022-12-07T02:54:34;101747.75;;;16.30;59.25
62126;BME280;48112;53.282;6.150;2022-12-07T02:55:40;101729.84;;;16.29;59.15
62126;BME280;48112;53.282;6.150;2022-12-07T02:56:47;101733.00;;;16.31;59.39
62126;BME280;48112;53.282;6.150;2022-12-07T02:58:06;101725.53;;;16.28;59.27
62126;BME280;48112;53.282;6.150;2022-12-07T02:59:16;101732.94;;;16.28;59.39
62126;BME280;48112;53.282;6.150;2022-12-07T03:00:24;101731.78;;;16.29;59.45
62126;BME280;48112;53.282;6.150;2022-12-07T03:01:31;101726.31;;;16.29;59.14
62126;BME280;48112;53.282;6.150;2022-12-07T03:02:38;101731.75;;;16.10;59.68
62126;BME280;48112;53.282;6.150;2022-12-07T03:03:48;101729.28;;;16.20;59.57
62126;BME280;48112;53.282;6.150;2022-12-07T03:05:10;101728.13;;;16.21;59.49
62126;BME280;48112;53.282;6.150;2022-12-07T03:06:19;101739.44;;;16.23;59.45
62126;BME280;48112;53.282;6.150;2022-12-07T03:07:35;101732.03;;;16.24;59.36
62126;BME280;48112;53.282;6.150;2022-12-07T03:08:50;101730.84;;;16.21;59.40
62126;BME280;48112;53.282;6.150;2022-12-07T03:10:03;101726.97;;;16.22;59.36
62126;BME280;48112;53.282;6.150;2022-12-07T03:11:09;101731.28;;;16.23;59.33
62126;BME280;48112;53.282;6.150;2022-12-07T03:12:19;101732.84;;;16.24;59.24
62126;BME280;48112;53.282;6.150;2022-12-07T03:13:27;101728.97;;;16.25;59.13
62126;BME280;48112;53.282;6.150;2022-12-07T03:14:34;101727.41;;;16.24;59.48
62126;BME280;48112;53.282;6.150;2022-12-07T03:15:44;101723.50;;;16.25;59.19
62126;BME280;48112;53.282;6.150;2022-12-07T03:16:52;101723.09;;;16.23;59.37
62126;BME280;48112;53.282;6.150;2022-12-07T03:17:58;101716.47;;;16.05;59.79
62126;BME280;48112;53.282;6.150;2022-12-07T03:19:06;101721.00;;;16.17;59.69
62126;BME280;48112;53.282;6.150;2022-12-07T03:20:12;101721.88;;;16.21;59.29
62126;BME280;48112;53.282;6.150;2022-12-07T03:21:18;101720.75;;;16.22;59.25
62126;BME280;48112;53.282;6.150;2022-12-07T03:22:22;101723.09;;;16.23;59.25
62126;BME280;48112;53.282;6.150;2022-12-07T03:23:25;101716.50;;;16.24;59.30
62126;BME280;48112;53.282;6.150;2022-12-07T03:24:33;101730.13;;;16.24;59.10
62126;BME280;48112;53.282;6.150;2022-12-07T03:25:39;101721.94;;;16.24;59.25
62126;BME280;48112;53.282;6.150;2022-12-07T03:26:48;101727.41;;;16.24;59.17
62126;BME280;48112;53.282;6.150;2022-12-07T03:27:54;101720.38;;;16.23;59.06
62126;BME280;48112;53.282;6.150;2022-12-07T03:29:02;101726.59;;;16.24;59.10
62126;BME280;48112;53.282;6.150;2022-12-07T03:30:08;101715.69;;;16.24;59.10
62126;BME280;48112;53.282;6.150;2022-12-07T03:31:16;101718.06;;;16.25;59.06
62126;BME280;48112;53.282;6.150;2022-12-07T03:32:24;101712.63;;;16.25;59.33
62126;BME280;48112;53.282;6.150;2022-12-07T03:33:32;101716.50;;;16.24;59.03
62126;BME280;48112;53.282;6.150;2022-12-07T03:34:40;101716.50;;;16.24;58.94
62126;BME280;48112;53.282;6.150;2022-12-07T03:35:47;101714.91;;;16.04;59.71
62126;BME280;48112;53.282;6.150;2022-12-07T03:36:55;101715.56;;;16.17;59.35
62126;BME280;48112;53.282;6.150;2022-12-07T03:38:07;101708.59;;;16.19;59.17
62126;BME280;48112;53.282;6.150;2022-12-07T03:39:17;101710.53;;;16.19;59.08
62126;BME280;48112;53.282;6.150;2022-12-07T03:40:29;101722.66;;;16.21;59.03
62126;BME280;48112;53.282;6.150;2022-12-07T03:41:33;101723.47;;;16.22;59.13
62126;BME280;48112;53.282;6.150;2022-12-07T03:42:46;101728.13;;;16.21;59.14
62126;BME280;48112;53.282;6.150;2022-12-07T03:43:48;101725.03;;;16.23;59.08
62126;BME280;48112;53.282;6.150;2022-12-07T03:44:51;101730.47;;;16.23;58.87
62126;BME280;48112;53.282;6.150;2022-12-07T03:45:59;101726.59;;;16.24;58.91
62126;BME280;48112;53.282;6.150;2022-12-07T03:47:12;101730.84;;;16.21;59.01
62126;BME280;48112;53.282;6.150;2022-12-07T03:48:22;101719.94;;;16.21;59.12
62126;BME280;48112;53.282;6.150;2022-12-07T03:49:30;101731.28;;;16.23;58.92
62126;BME280;48112;53.282;6.150;2022-12-07T03:50:38;101723.47;;;16.22;58.80
62126;BME280;48112;53.282;6.150;2022-12-07T03:51:46;101726.19;;;16.22;59.03
62126;BME280;48112;53.282;6.150;2022-12-07T03:52:55;101719.59;;;16.23;58.96
62126;BME280;48112;53.282;6.150;2022-12-07T03:54:04;101716.84;;;16.23;59.01
62126;BME280;48112;53.282;6.150;2022-12-07T03:55:11;101713.34;;;16.22;58.83
62126;BME280;48112;53.282;6.150;2022-12-07T03:56:17;101713.34;;;16.22;58.95
62126;BME280;48112;53.282;6.150;2022-12-07T03:57:21;101716.50;;;16.24;58.86
62126;BME280;48112;53.282;6.150;2022-12-07T03:58:25;101712.97;;;16.24;58.79
62126;BME280;48112;53.282;6.150;2022-12-07T03:59:28;101709.47;;;16.23;58.81
62126;BME280;48112;53.282;6.150;2022-12-07T04:00:31;101715.34;;;16.25;58.76
62126;BME280;48112;53.282;6.150;2022-12-07T04:01:33;101709.88;;;16.25;58.69
62126;BME280;48112;53.282;6.150;2022-12-07T04:02:38;101711.50;;;16.26;58.75
62126;BME280;48112;53.282;6.150;2022-12-07T04:03:40;101712.63;;;16.25;58.67
62126;BME280;48112;53.282;6.150;2022-12-07T04:04:43;101713.41;;;16.26;58.68
62126;BME280;48112;53.282;6.150;2022-12-07T04:05:45;101713.41;;;16.26;58.75
62126;BME280;48112;53.282;6.150;2022-12-07T04:06:48;101716.94;;;16.26;58.66
62126;BME280;48112;53.282;6.150;2022-12-07T04:07:50;101710.31;;;16.27;58.87
62126;BME280;48112;53.282;6.150;2022-12-07T04:08:53;101708.75;;;16.26;58.61
62126;BME280;48112;53.282;6.150;2022-12-07T04:09:55;101708.75;;;16.26;58.52
62126;BME280;48112;53.282;6.150;2022-12-07T04:10:58;101706.81;;;16.27;58.54
62126;BME280;48112;53.282;6.150;2022-12-07T04:11:59;101704.09;;;16.27;58.56
62126;BME280;48112;53.282;6.150;2022-12-07T04:13:02;101710.31;;;16.27;58.61
62126;BME280;48112;53.282;6.150;2022-12-07T04:14:04;101706.81;;;16.27;58.66
62126;BME280;48112;53.282;6.150;2022-12-07T04:15:22;101701.72;;;16.25;58.66
62126;BME280;48112;53.282;6.150;2022-12-07T04:16:25;101705.25;;;16.26;58.43
62126;BME280;48112;53.282;6.150;2022-12-07T04:17:27;101695.13;;;16.26;58.49
62126;BME280;48112;53.282;6.150;2022-12-07T04:18:31;101704.88;;;16.27;58.56
62126;BME280;48112;53.282;6.150;2022-12-07T04:19:34;101704.88;;;16.27;58.43
62126;BME280;48112;53.282;6.150;2022-12-07T04:20:37;101708.75;;;16.26;58.63
62126;BME280;48112;53.282;6.150;2022-12-07T04:21:39;101702.50;;;16.26;58.59
62126;BME280;48112;53.282;6.150;2022-12-07T04:22:42;101704.88;;;16.27;58.51
62126;BME280;48112;53.282;6.150;2022-12-07T04:23:44;101696.69;;;16.27;58.58
62126;BME280;48112;53.282;6.150;2022-12-07T04:24:47;101699.44;;;16.27;58.59
62126;BME280;48112;53.282;6.150;2022-12-07T04:25:48;101706.44;;;16.28;58.40
62126;BME280;48112;53.282;6.150;2022-12-07T04:26:51;101707.59;;;16.27;58.49
62126;BME280;48112;53.282;6.150;2022-12-07T04:27:53;101699.44;;;16.27;58.11
62126;BME280;48112;53.282;6.150;2022-12-07T04:28:56;101696.69;;;16.27;58.41
62126;BME280;48112;53.282;6.150;2022-12-07T04:29:58;101698.28;;;16.28;58.39
62126;BME280;48112;53.282;6.150;2022-12-07T04:31:02;101704.88;;;16.27;58.18
62126;BME280;48112;53.282;6.150;2022-12-07T04:32:04;101701.00;;;16.28;58.33
62126;BME280;48112;53.282;6.150;2022-12-07T04:33:07;101696.69;;;16.27;58.43
62126;BME280;48112;53.282;6.150;2022-12-07T04:34:12;101694.78;;;16.28;58.31
62126;BME280;48112;53.282;6.150;2022-12-07T04:35:15;101705.69;;;16.28;58.38
62126;BME280;48112;53.282;6.150;2022-12-07T04:36:17;101701.00;;;16.28;58.33
62126;BME280;48112;53.282;6.150;2022-12-07T04:37:21;101699.44;;;16.27;58.40
62126;BME280;48112;53.282;6.150;2022-12-07T04:38:23;101699.44;;;16.27;58.29
62126;BME280;48112;53.282;6.150;2022-12-07T04:39:28;101704.53;;;16.29;58.38
62126;BME280;48112;53.282;6.150;2022-12-07T04:40:30;101697.50;;;16.28;58.22
62126;BME280;48112;53.282;6.150;2022-12-07T04:41:33;101699.44;;;16.27;58.27
62126;BME280;48112;53.282;6.150;2022-12-07T04:42:35;101706.44;;;16.28;58.29
62126;BME280;48112;53.282;6.150;2022-12-07T04:43:38;101696.69;;;16.27;58.10
62126;BME280;48112;53.282;6.150;2022-12-07T04:44:40;101698.28;;;16.28;58.19
62126;BME280;48112;53.282;6.150;2022-12-07T04:45:46;101701.00;;;16.28;58.07
62126;BME280;48112;53.282;6.150;2022-12-07T04:46:48;101691.25;;;16.27;58.20
62126;BME280;48112;53.282;6.150;2022-12-07T04:47:51;101689.69;;;16.26;58.18
62126;BME280;48112;53.282;6.150;2022-12-07T04:48:53;101686.59;;;16.28;58.12
62126;BME280;48112;53.282;6.150;2022-12-07T04:49:57;101686.59;;;16.28;58.19
62126;BME280;48112;53.282;6.150;2022-12-07T04:50:59;101683.09;;;16.27;58.04
62126;BME280;48112;53.282;6.150;2022-12-07T04:52:02;101686.59;;;16.28;58.11
62126;BME280;48112;53.282;6.150;2022-12-07T04:53:04;101684.25;;;16.26;58.04
62126;BME280;48112;53.282;6.150;2022-12-07T04:54:07;101684.59;;;16.25;58.10
62126;BME280;48112;53.282;6.150;2022-12-07T04:55:09;101685.81;;;16.27;58.08
62126;BME280;48112;53.282;6.150;2022-12-07T04:56:13;101689.31;;;16.28;57.98
62126;BME280;48112;53.282;6.150;2022-12-07T04:57:15;101686.97;;;16.26;58.03
62126;BME280;48112;53.282;6.150;2022-12-07T04:58:18;101686.97;;;16.26;58.12
62126;BME280;48112;53.282;6.150;2022-12-07T04:59:20;101685.00;;;16.27;58.10
62126;BME280;48112;53.282;6.150;2022-12-07T05:00:23;101683.09;;;16.27;57.94
62126;BME280;48112;53.282;6.150;2022-12-07T05:01:25;101685.81;;;16.27;57.87
62126;BME280;48112;53.282;6.150;2022-12-07T05:02:28;101691.25;;;16.27;58.07
62126;BME280;48112;53.282;6.150;2022-12-07T05:03:30;101695.53;;;16.28;57.93
62126;BME280;48112;53.282;6.150;2022-12-07T05:04:32;101699.44;;;16.27;57.98
62126;BME280;48112;53.282;6.150;2022-12-07T05:05:36;101698.28;;;16.28;57.98
62126;BME280;48112;53.282;6.150;2022-12-07T05:06:42;101695.13;;;16.26;58.03
62126;BME280;48112;53.282;6.150;2022-12-07T05:07:44;101700.59;;;16.26;57.79
62126;BME280;48112;53.282;6.150;2022-12-07T05:08:48;101697.88;;;16.26;57.82
62126;BME280;48112;53.282;6.150;2022-12-07T05:09:50;101698.63;;;16.27;58.00
62126;BME280;48112;53.282;6.150;2022-12-07T05:10:52;101697.88;;;16.26;58.02
62126;BME280;48112;53.282;6.150;2022-12-07T05:11:54;101696.25;;;16.25;57.80
62126;BME280;48112;53.282;6.150;2022-12-07T05:12:57;101704.88;;;16.27;58.01
62126;BME280;48112;53.282;6.150;2022-12-07T05:13:59;101702.16;;;16.27;57.70
62126;BME280;48112;53.282;6.150;2022-12-07T05:15:03;101710.31;;;16.27;58.02
62126;BME280;48112;53.282;6.150;2022-12-07T05:16:06;101712.25;;;16.27;57.86
62126;BME280;48112;53.282;6.150;2022-12-07T05:17:09;101724.31;;;16.26;58.01
62126;BME280;48112;53.282;6.150;2022-12-07T05:18:10;101724.69;;;16.24;57.85
62126;BME280;48112;53.282;6.150;2022-12-07T05:19:14;101726.25;;;16.25;57.83
62126;BME280;48112;53.282;6.150;2022-12-07T05:20:16;101730.56;;;16.26;57.91
62126;BME280;48112;53.282;6.150;2022-12-07T05:21:20;101727.47;;;16.28;57.93
62126;BME280;48112;53.282;6.150;2022-12-07T05:22:22;101733.28;;;16.26;57.88
62126;BME280;48112;53.282;6.150;2022-12-07T05:23:30;101732.84;;;16.24;57.85
62126;BME280;48112;53.282;6.150;2022-12-07T05:24:31;101734.41;;;16.25;57.85
62126;BME280;48112;53.282;6.150;2022-12-07T05:25:34;101728.97;;;16.25;57.83
62126;BME280;48112;53.282;6.150;2022-12-07T05:26:36;101734.41;;;16.25;57.78
62126;BME280;48112;53.282;6.150;2022-12-07T05:27:39;101723.50;;;16.25;57.64
62126;BME280;48112;53.282;6.150;2022-12-07T05:28:41;101711.50;;;16.26;57.77
62126;BME280;48112;53.282;6.150;2022-12-07T05:29:44;101703.31;;;16.26;57.72
62126;BME280;48112;53.282;6.150;2022-12-07T05:30:45;101696.25;;;16.25;57.63
62126;BME280;48112;53.282;6.150;2022-12-07T05:31:48;101696.25;;;16.25;57.73
62126;BME280;48112;53.282;6.150;2022-12-07T05:32:50;101702.50;;;16.26;57.60
62126;BME280;48112;53.282;6.150;2022-12-07T05:33:53;101699.78;;;16.26;57.65
62126;BME280;48112;53.282;6.150;2022-12-07T05:34:55;101690.81;;;16.25;57.72
62126;BME280;48112;53.282;6.150;2022-12-07T05:35:58;101696.25;;;16.25;57.70
62126;BME280;48112;53.282;6.150;2022-12-07T05:37:01;101690.81;;;16.25;57.65
62126;BME280;48112;53.282;6.150;2022-12-07T05:38:04;101693.53;;;16.25;57.82
62126;BME280;48112;53.282;6.150;2022-12-07T05:39:06;101696.25;;;16.25;57.67
62126;BME280;48112;53.282;6.150;2022-12-07T05:40:10;101685.38;;;16.25;57.54
62126;BME280;48112;53.282;6.150;2022-12-07T05:41:15;101700.94;;;16.25;57.55
62126;BME280;48112;53.282;6.150;2022-12-07T05:42:32;101695.41;;;16.21;57.66
62126;BME280;48112;53.282;6.150;2022-12-07T05:43:34;101691.53;;;16.22;57.78